createdAt,value
2023-05-01T00:01:48.953Z,10.57
2023-05-01T00:04:15.919Z,16.00
2023-05-01T00:06:42.875Z,12.02
2023-05-01T00:09:09.687Z,8.65
2023-05-01T00:11:37.784Z,10.02
2023-05-01T00:14:04.859Z,8.57
2023-05-01T00:16:31.644Z,11.05
2023-05-01T00:18:58.789Z,12.00
2023-05-01T00:21:25.587Z,10.95
2023-05-01T00:23:52.353Z,8.98
2023-05-01T00:26:19.255Z,9.77
2023-05-01T00:28:46.108Z,9.52
2023-05-01T00:31:13.174Z,11.48
2023-05-01T00:33:40.977Z,10.15
2023-05-01T00:36:07.841Z,9.75
2023-05-01T00:38:34.994Z,9.85
2023-05-01T00:41:01.870Z,10.90
2023-05-01T00:43:28.645Z,9.23
2023-05-01T00:45:55.444Z,11.20
2023-05-01T00:48:22.347Z,13.93
2023-05-01T00:50:49.117Z,9.50
2023-05-01T00:53:16.018Z,10.38
2023-05-01T00:55:43.523Z,8.65
2023-05-01T00:58:11.057Z,8.35
2023-05-01T01:00:38.163Z,8.65
2023-05-01T01:03:05.189Z,9.57
2023-05-01T01:05:32.820Z,8.52
2023-05-01T01:08:15.972Z,9.13
2023-05-01T01:10:42.722Z,8.88
2023-05-01T01:13:19.492Z,8.80
2023-05-01T01:15:50.903Z,9.73
2023-05-01T01:18:40.695Z,12.48
2023-05-01T01:21:23.747Z,9.77
2023-05-01T01:24:17.420Z,10.05
2023-05-01T01:27:12.148Z,9.25
2023-05-01T01:30:29.962Z,8.75
2023-05-01T01:33:16.759Z,9.70
2023-05-01T01:35:47.221Z,9.57
2023-05-01T01:38:18.278Z,13.88
2023-05-01T01:40:54.087Z,13.50
2023-05-01T01:43:20.827Z,9.90
2023-05-01T01:45:48.234Z,9.35
2023-05-01T01:48:19.594Z,9.20
2023-05-01T01:50:46.772Z,9.38
2023-05-01T01:53:15.324Z,8.73
2023-05-01T01:55:42.721Z,10.27
2023-05-01T01:58:10.765Z,8.80
2023-05-01T02:00:38.200Z,14.50
2023-05-01T02:03:05.184Z,8.75
2023-05-01T02:05:32.376Z,11.70
2023-05-01T02:07:59.162Z,12.18
2023-05-01T02:10:26.033Z,17.63
2023-05-01T02:12:53.441Z,10.43
2023-05-01T02:15:20.183Z,10.90
2023-05-01T02:17:47.039Z,11.02
2023-05-01T02:20:13.909Z,16.52
2023-05-01T02:22:41.163Z,9.95
2023-05-01T02:25:10.225Z,10.45
2023-05-01T02:27:41.120Z,8.73
2023-05-01T02:30:08.630Z,8.88
2023-05-01T02:32:35.722Z,11.32
2023-05-01T02:35:02.580Z,9.23
2023-05-01T02:37:30.906Z,9.15
2023-05-01T02:39:58.820Z,11.00
2023-05-01T02:42:26.206Z,18.13
2023-05-01T02:45:05.992Z,9.50
2023-05-01T02:47:34.273Z,13.95
2023-05-01T02:50:01.114Z,11.48
2023-05-01T02:52:28.724Z,11.60
2023-05-01T02:54:55.451Z,10.43
2023-05-01T02:57:22.385Z,9.20
2023-05-01T02:59:49.192Z,13.48
2023-05-01T03:02:18.666Z,12.30
2023-05-01T03:04:45.459Z,13.05
2023-05-01T03:07:12.399Z,17.33
2023-05-01T03:09:39.246Z,18.85
2023-05-01T03:12:06.093Z,15.98
2023-05-01T03:14:33.187Z,81.57
2023-05-01T03:16:59.989Z,80.53
2023-05-01T03:19:27.229Z,49.50
2023-05-01T03:21:54.109Z,80.10
2023-05-01T03:24:21.123Z,35.60
2023-05-01T03:26:48.655Z,69.88
2023-05-01T03:29:15.500Z,26.02
2023-05-01T03:31:42.423Z,59.30
2023-05-01T03:34:09.185Z,33.00
2023-05-01T03:36:36.625Z,11.45
2023-05-01T03:39:05.018Z,22.05
2023-05-01T03:41:32.351Z,14.43
2023-05-01T03:43:59.425Z,10.10
2023-05-01T03:46:26.159Z,12.10
2023-05-01T03:48:52.960Z,10.27
2023-05-01T03:51:19.838Z,10.10
2023-05-01T03:53:46.542Z,11.75
2023-05-01T03:56:13.357Z,10.23
2023-05-01T03:58:40.138Z,13.70
2023-05-01T04:01:06.909Z,11.43
2023-05-01T04:03:33.809Z,17.88
2023-05-01T04:06:00.853Z,15.50
2023-05-01T04:08:27.609Z,15.25
2023-05-01T04:10:54.437Z,30.88
2023-05-01T04:13:21.532Z,28.75
2023-05-01T04:15:48.501Z,12.85
2023-05-01T04:18:15.415Z,11.32
2023-05-01T04:20:42.377Z,9.15
2023-05-01T04:23:09.727Z,8.60
2023-05-01T04:25:37.103Z,9.88
2023-05-01T04:28:04.108Z,9.00
2023-05-01T04:30:33.783Z,10.52
2023-05-01T04:35:27.211Z,10.35
2023-05-01T04:37:54.082Z,9.18
2023-05-01T04:40:21.020Z,9.65
2023-05-01T04:42:47.756Z,9.75
2023-05-01T04:45:14.586Z,9.18
2023-05-01T04:47:41.420Z,8.85
2023-05-01T04:50:08.498Z,11.15
2023-05-01T04:52:36.096Z,9.75
2023-05-01T04:55:04.006Z,12.40
2023-05-01T04:57:30.816Z,10.15
2023-05-01T04:59:57.967Z,12.20
2023-05-01T05:02:25.248Z,9.90
2023-05-01T05:04:54.064Z,10.35
2023-05-01T05:07:21.217Z,8.77
2023-05-01T05:09:48.158Z,12.45
2023-05-01T05:12:15.228Z,9.45
2023-05-01T05:14:42.432Z,10.13
2023-05-01T05:17:09.817Z,12.18
2023-05-01T05:19:36.746Z,15.02
2023-05-01T05:22:04.008Z,8.32
2023-05-01T05:24:31.132Z,9.43
2023-05-01T05:26:58.109Z,13.48
2023-05-01T05:29:24.950Z,12.40
2023-05-01T05:31:51.872Z,9.75
2023-05-01T05:34:19.579Z,9.68
2023-05-01T05:36:46.411Z,8.75
2023-05-01T05:39:14.852Z,8.93
2023-05-01T05:41:41.630Z,10.20
2023-05-01T05:44:08.435Z,9.88
2023-05-01T05:46:35.401Z,13.05
2023-05-01T05:49:02.181Z,11.88
2023-05-01T05:51:28.921Z,8.45
2023-05-01T05:53:55.755Z,8.23
2023-05-01T05:56:23.246Z,8.27
2023-05-01T05:58:50.029Z,9.45
2023-05-01T06:01:18.041Z,9.30
2023-05-01T06:03:44.913Z,8.52
2023-05-01T06:06:11.710Z,8.95
2023-05-01T06:08:38.756Z,9.48
2023-05-01T06:11:05.650Z,9.57
2023-05-01T06:13:33.004Z,9.35
2023-05-01T06:16:00.007Z,9.13
2023-05-01T06:18:27.259Z,9.10
2023-05-01T06:20:54.523Z,9.93
2023-05-01T06:23:21.406Z,13.40
2023-05-01T06:25:49.211Z,8.90
2023-05-01T06:28:16.131Z,7.95
2023-05-01T06:30:43.027Z,14.05
2023-05-01T06:33:10.479Z,7.85
2023-05-01T06:35:39.800Z,8.57
2023-05-01T06:38:07.030Z,50.30
2023-05-01T06:40:35.283Z,72.85
2023-05-01T06:43:03.116Z,56.45
2023-05-01T06:45:29.954Z,35.72
2023-05-01T06:47:56.892Z,13.95
2023-05-01T06:50:23.668Z,10.80
2023-05-01T06:52:50.524Z,10.80
2023-05-01T06:55:17.255Z,9.88
2023-05-01T06:57:44.046Z,12.23
2023-05-01T07:00:11.538Z,10.25
2023-05-01T07:02:38.587Z,10.10
2023-05-01T07:05:05.740Z,12.00
2023-05-01T07:07:32.682Z,11.55
2023-05-01T07:09:59.573Z,10.13
2023-05-01T07:12:26.977Z,9.48
2023-05-01T07:14:53.973Z,10.30
2023-05-01T07:17:20.836Z,13.23
2023-05-01T07:19:47.670Z,9.85
2023-05-01T07:22:14.500Z,13.20
2023-05-01T07:24:41.224Z,14.70
2023-05-01T07:27:08.118Z,14.02
2023-05-01T07:29:40.321Z,9.15
2023-05-01T07:32:07.642Z,9.55
2023-05-01T07:34:34.710Z,10.30
2023-05-01T07:37:01.749Z,8.07
2023-05-01T07:39:28.477Z,9.13
2023-05-01T07:41:57.055Z,8.48
2023-05-01T07:44:24.470Z,8.65
2023-05-01T07:46:51.192Z,8.95
2023-05-01T07:49:17.910Z,9.38
2023-05-01T07:51:45.789Z,8.63
2023-05-01T07:54:14.981Z,8.20
2023-05-01T07:56:41.960Z,9.50
2023-05-01T07:59:08.886Z,13.30
2023-05-01T08:01:36.634Z,8.50
2023-05-01T08:04:03.530Z,9.43
2023-05-01T08:06:32.216Z,9.45
2023-05-01T08:08:59.083Z,10.63
2023-05-01T08:11:26.928Z,9.15
2023-05-01T08:13:53.799Z,9.05
2023-05-01T08:16:22.099Z,8.57
2023-05-01T08:18:49.097Z,10.10
2023-05-01T08:21:16.044Z,10.70
2023-05-01T08:23:42.793Z,8.77
2023-05-01T08:26:09.766Z,9.82
2023-05-01T08:28:36.752Z,9.25
2023-05-01T08:31:04.026Z,9.13
2023-05-01T08:33:30.864Z,9.23
2023-05-01T08:35:57.731Z,9.10
2023-05-01T08:38:24.444Z,9.65
2023-05-01T08:40:54.413Z,9.10
2023-05-01T08:43:21.362Z,13.35
2023-05-01T08:45:48.996Z,9.02
2023-05-01T08:48:18.026Z,10.40
2023-05-01T08:50:46.648Z,9.73
2023-05-01T08:53:15.444Z,8.85
2023-05-01T08:55:44.435Z,11.18
2023-05-01T08:58:11.299Z,13.18
2023-05-01T09:00:39.464Z,9.18
2023-05-01T09:03:06.347Z,9.43
2023-05-01T09:05:33.405Z,9.85
2023-05-01T09:08:00.475Z,9.20
2023-05-01T09:10:27.315Z,9.90
2023-05-01T09:12:58.721Z,10.43
2023-05-01T09:15:29.043Z,10.57
2023-05-01T09:17:56.563Z,10.23
2023-05-01T09:20:23.599Z,9.20
2023-05-01T09:22:50.826Z,12.90
2023-05-01T09:25:18.318Z,12.95
2023-05-01T09:27:46.102Z,11.35
2023-05-01T09:30:36.831Z,9.65
2023-05-01T09:33:14.289Z,8.57
2023-05-01T09:35:54.992Z,10.90
2023-05-01T09:38:26.147Z,9.27
2023-05-01T09:40:57.334Z,9.57
2023-05-01T09:43:27.898Z,11.23
2023-05-01T09:46:05.564Z,8.60
2023-05-01T09:48:35.250Z,8.68
2023-05-01T09:51:24.172Z,9.13
2023-05-01T09:53:51.561Z,9.10
2023-05-01T09:56:19.189Z,9.77
2023-05-01T09:58:46.762Z,13.27
2023-05-01T10:01:13.632Z,12.07
2023-05-01T10:03:40.671Z,11.65
2023-05-01T10:06:07.541Z,11.15
2023-05-01T10:08:49.486Z,13.32
2023-05-01T10:11:16.300Z,10.70
2023-05-01T10:13:43.069Z,12.73
2023-05-01T10:16:29.495Z,10.30
2023-05-01T10:18:57.686Z,10.90
2023-05-01T10:21:24.548Z,10.48
2023-05-01T10:23:52.910Z,10.00
2023-05-01T10:26:20.781Z,10.00
2023-05-01T10:28:49.067Z,9.98
2023-05-01T10:31:16.596Z,9.82
2023-05-01T10:33:44.199Z,10.32
2023-05-01T10:36:22.931Z,9.13
2023-05-01T10:38:49.684Z,9.50
2023-05-01T10:41:19.106Z,9.25
2023-05-01T10:43:46.119Z,10.10
2023-05-01T10:46:21.821Z,13.80
2023-05-01T10:48:51.495Z,11.60
2023-05-01T10:51:24.380Z,13.35
2023-05-01T10:54:14.430Z,14.55
2023-05-01T10:56:43.071Z,16.58
2023-05-01T11:01:43.171Z,12.20
2023-05-01T11:04:22.141Z,15.23
2023-05-01T11:07:11.358Z,19.63
2023-05-01T11:09:41.753Z,13.00
2023-05-01T11:12:12.781Z,18.73
2023-05-01T11:14:55.899Z,12.50
2023-05-01T11:17:44.075Z,16.50
2023-05-01T11:20:11.482Z,12.05
2023-05-01T11:22:40.134Z,11.20
2023-05-01T11:27:52.367Z,12.50
2023-05-01T11:30:19.185Z,14.38
2023-05-01T11:32:47.479Z,14.05
2023-05-01T11:35:26.437Z,13.88
2023-05-01T11:37:55.840Z,11.40
2023-05-01T11:40:26.353Z,14.38
2023-05-01T11:43:02.689Z,10.45
2023-05-01T11:45:29.625Z,13.80
2023-05-01T11:47:56.767Z,13.25
2023-05-01T11:50:23.964Z,11.45
2023-05-01T11:52:53.672Z,12.10
2023-05-01T11:55:21.266Z,12.82
2023-05-01T11:57:49.400Z,13.90
2023-05-01T12:00:17.233Z,12.32
2023-05-01T12:03:10.525Z,15.25
2023-05-01T12:05:39.278Z,11.70
2023-05-01T12:08:14.275Z,12.32
2023-05-01T12:10:43.200Z,13.80
2023-05-01T12:13:11.057Z,14.32
2023-05-01T12:15:39.885Z,13.43
2023-05-01T12:18:06.708Z,11.25
2023-05-01T12:20:37.935Z,11.98
2023-05-01T12:23:05.950Z,13.75
2023-05-01T12:25:36.662Z,11.32
2023-05-01T12:28:07.897Z,14.15
2023-05-01T12:30:34.633Z,14.23
2023-05-01T12:33:06.005Z,13.27
2023-05-01T12:35:32.969Z,11.88
2023-05-01T12:37:59.856Z,13.90
2023-05-01T12:40:27.118Z,10.18
2023-05-01T12:43:00.192Z,10.60
2023-05-01T12:45:26.914Z,12.98
2023-05-01T12:47:53.751Z,10.32
2023-05-01T12:50:21.008Z,11.93
2023-05-01T12:52:48.395Z,10.35
2023-05-01T12:55:15.165Z,11.27
2023-05-01T12:57:53.101Z,12.43
2023-05-01T13:02:46.624Z,15.93
2023-05-01T13:05:13.711Z,9.25
2023-05-01T13:07:40.433Z,9.57
2023-05-01T13:10:07.659Z,9.98
2023-05-01T13:12:34.512Z,9.65
2023-05-01T13:15:01.356Z,8.73
2023-05-01T13:17:32.259Z,14.13
2023-05-01T13:20:00.608Z,8.73
2023-05-01T13:22:37.370Z,8.13
2023-05-01T13:25:05.596Z,10.18
2023-05-01T13:27:32.664Z,9.55
2023-05-01T13:30:00.024Z,9.32
2023-05-01T13:32:27.398Z,11.05
2023-05-01T13:34:54.484Z,12.52
2023-05-01T13:37:24.027Z,9.98
2023-05-01T13:39:51.269Z,13.25
2023-05-01T13:42:27.110Z,8.27
2023-05-01T13:44:55.827Z,7.55
2023-05-01T13:47:26.020Z,8.77
2023-05-01T13:49:52.921Z,13.35
2023-05-01T13:52:20.281Z,9.60
2023-05-01T13:54:47.867Z,8.55
2023-05-01T13:57:16.133Z,9.93
2023-05-01T13:59:44.165Z,8.85
2023-05-01T14:02:29.746Z,7.57
2023-05-01T14:05:00.079Z,6.72
2023-05-01T14:07:28.722Z,6.72
2023-05-01T14:10:00.010Z,7.63
2023-05-01T14:12:28.735Z,6.88
2023-05-01T14:14:55.611Z,7.10
2023-05-01T14:17:36.025Z,7.75
2023-05-01T14:20:03.007Z,7.25
2023-05-01T14:22:45.493Z,7.10
2023-05-01T14:25:34.090Z,6.78
2023-05-01T14:28:02.129Z,7.63
2023-05-01T14:30:33.824Z,10.50
2023-05-01T14:33:04.551Z,8.88
2023-05-01T14:35:31.401Z,5.85
2023-05-01T14:38:08.097Z,10.50
2023-05-01T14:40:34.852Z,6.82
2023-05-01T14:43:01.792Z,8.82
2023-05-01T14:45:28.829Z,8.88
2023-05-01T14:47:57.106Z,7.22
2023-05-01T14:50:24.409Z,7.07
2023-05-01T14:52:55.313Z,6.25
2023-05-01T14:55:28.111Z,8.15
2023-05-01T14:57:55.605Z,7.63
2023-05-01T15:00:25.433Z,6.80
2023-05-01T15:02:52.281Z,7.25
2023-05-01T15:05:19.290Z,11.27
2023-05-01T15:07:46.945Z,8.25
2023-05-01T15:10:13.799Z,7.95
2023-05-01T15:12:40.714Z,7.72
2023-05-01T15:15:08.507Z,8.85
2023-05-01T15:17:35.334Z,8.02
2023-05-01T15:20:02.308Z,7.88
2023-05-01T15:22:31.307Z,6.25
2023-05-01T15:24:58.385Z,8.32
2023-05-01T15:27:25.589Z,7.15
2023-05-01T15:29:52.432Z,6.97
2023-05-01T15:32:19.411Z,7.20
2023-05-01T15:34:46.591Z,6.70
2023-05-01T15:37:13.884Z,7.53
2023-05-01T15:39:40.796Z,6.47
2023-05-01T15:42:08.149Z,6.35
2023-05-01T15:44:35.116Z,6.95
2023-05-01T15:47:02.155Z,8.45
2023-05-01T15:49:29.052Z,6.90
2023-05-01T15:51:56.195Z,5.65
2023-05-01T15:54:24.721Z,9.40
2023-05-01T15:56:51.719Z,7.65
2023-05-01T15:59:18.446Z,7.28
2023-05-01T16:01:45.322Z,7.97
2023-05-01T16:04:12.361Z,7.85
2023-05-01T16:06:40.526Z,7.10
2023-05-01T16:09:07.997Z,6.72
2023-05-01T16:11:34.810Z,7.45
2023-05-01T16:14:01.533Z,6.63
2023-05-01T16:16:28.669Z,8.50
2023-05-01T16:18:57.441Z,8.13
2023-05-01T16:21:24.786Z,7.00
2023-05-01T16:23:53.248Z,8.65
2023-05-01T16:26:28.388Z,12.43
2023-05-01T16:28:58.854Z,8.23
2023-05-01T16:31:27.415Z,8.55
2023-05-01T16:33:54.948Z,7.78
2023-05-01T16:36:21.851Z,9.80
2023-05-01T16:38:48.867Z,6.82
2023-05-01T16:41:19.130Z,10.55
2023-05-01T16:43:46.510Z,8.55
2023-05-01T16:46:15.462Z,6.22
2023-05-01T16:48:42.326Z,11.98
2023-05-01T16:51:09.870Z,7.72
2023-05-01T16:53:36.898Z,7.18
2023-05-01T16:56:04.530Z,7.53
2023-05-01T16:58:31.414Z,9.85
2023-05-01T17:00:58.541Z,7.60
2023-05-01T17:03:25.304Z,7.78
2023-05-01T17:05:52.316Z,7.28
2023-05-01T17:08:19.343Z,7.93
2023-05-01T17:10:46.242Z,7.70
2023-05-01T17:13:15.839Z,12.73
2023-05-01T17:15:43.092Z,7.78
2023-05-01T17:18:10.012Z,6.75
2023-05-01T17:20:36.854Z,7.07
2023-05-01T17:23:04.050Z,6.93
2023-05-01T17:25:30.853Z,9.60
2023-05-01T17:27:59.145Z,7.20
2023-05-01T17:30:26.121Z,7.50
2023-05-01T17:32:53.440Z,7.75
2023-05-01T17:35:20.490Z,7.15
2023-05-01T17:37:47.486Z,7.45
2023-05-01T17:40:14.338Z,7.80
2023-05-01T17:42:41.962Z,6.82
2023-05-01T17:45:10.605Z,7.88
2023-05-01T17:47:41.652Z,7.25
2023-05-01T17:50:10.527Z,7.45
2023-05-01T17:52:38.724Z,11.23
2023-05-01T17:55:06.326Z,7.70
2023-05-01T17:57:37.607Z,8.00
2023-05-01T18:00:06.323Z,7.47
2023-05-01T18:02:35.628Z,8.35
2023-05-01T18:07:30.885Z,7.35
2023-05-01T18:09:58.477Z,9.02
2023-05-01T18:12:25.626Z,10.65
2023-05-01T18:14:52.718Z,8.05
2023-05-01T18:17:21.783Z,8.38
2023-05-01T18:19:50.216Z,8.75
2023-05-01T18:22:17.405Z,7.53
2023-05-01T18:24:44.189Z,8.23
2023-05-01T18:27:11.744Z,8.55
2023-05-01T18:29:39.715Z,7.30
2023-05-01T18:32:07.309Z,7.55
2023-05-01T18:34:34.059Z,7.43
2023-05-01T18:37:00.787Z,6.65
2023-05-01T18:39:27.657Z,8.25
2023-05-01T18:41:54.776Z,7.40
2023-05-01T18:44:21.684Z,8.23
2023-05-01T18:46:49.248Z,7.75
2023-05-01T18:49:16.032Z,7.40
2023-05-01T18:51:43.172Z,7.15
2023-05-01T18:54:10.242Z,10.23
2023-05-01T18:56:37.241Z,6.88
2023-05-01T18:59:03.995Z,11.05
2023-05-01T19:01:30.994Z,9.10
2023-05-01T19:03:59.519Z,7.97
2023-05-01T19:06:26.852Z,6.70
2023-05-01T19:08:53.861Z,7.18
2023-05-01T19:11:21.694Z,7.60
2023-05-01T19:13:48.990Z,10.80
2023-05-01T19:16:16.031Z,8.05
2023-05-01T19:18:42.822Z,7.35
2023-05-01T19:21:11.129Z,9.73
2023-05-01T19:23:40.025Z,8.45
2023-05-01T19:26:08.028Z,8.25
2023-05-01T19:28:35.217Z,12.23
2023-05-01T19:31:02.163Z,9.98
2023-05-01T19:33:28.911Z,9.45
2023-05-01T19:35:55.967Z,11.60
2023-05-01T19:38:22.781Z,9.07
2023-05-01T19:40:49.571Z,9.43
2023-05-01T19:43:16.590Z,9.85
2023-05-01T19:45:43.926Z,9.18
2023-05-01T19:48:10.789Z,8.93
2023-05-01T19:50:37.558Z,8.65
2023-05-01T19:53:05.599Z,11.05
2023-05-01T19:55:32.570Z,11.27
2023-05-01T19:57:59.386Z,13.88
2023-05-01T20:00:27.752Z,13.35
2023-05-01T20:02:54.655Z,8.75
2023-05-01T20:05:21.601Z,9.32
2023-05-01T20:07:48.562Z,9.93
2023-05-01T20:10:16.857Z,9.52
2023-05-01T20:12:43.605Z,10.90
2023-05-01T20:15:12.276Z,8.45
2023-05-01T20:17:39.017Z,9.10
2023-05-01T20:20:06.219Z,9.68
2023-05-01T20:22:33.153Z,9.38
2023-05-01T20:25:00.192Z,9.18
2023-05-01T20:27:27.035Z,8.57
2023-05-01T20:29:54.044Z,9.73
2023-05-01T20:32:20.747Z,9.02
2023-05-01T20:34:48.062Z,9.40
2023-05-01T20:37:15.015Z,9.02
2023-05-01T20:39:41.722Z,8.70
2023-05-01T20:42:08.584Z,9.35
2023-05-01T20:44:35.472Z,10.00
2023-05-01T20:47:02.184Z,9.70
2023-05-01T20:49:28.908Z,9.13
2023-05-01T20:51:57.215Z,9.25
2023-05-01T20:54:25.691Z,9.50
2023-05-01T20:56:52.496Z,9.02
2023-05-01T20:59:19.390Z,9.13
2023-05-01T21:01:46.248Z,9.40
2023-05-01T21:04:14.344Z,9.63
2023-05-01T21:06:41.404Z,10.25
2023-05-01T21:09:11.194Z,9.52
2023-05-01T21:11:40.168Z,9.63
2023-05-01T21:14:08.153Z,8.70
2023-05-01T21:16:35.066Z,12.75
2023-05-01T21:19:01.841Z,9.48
2023-05-01T21:21:29.233Z,9.65
2023-05-01T21:23:56.105Z,9.10
2023-05-01T21:26:22.938Z,13.38
2023-05-01T21:28:49.728Z,10.07
2023-05-01T21:31:16.515Z,9.48
2023-05-01T21:33:46.398Z,9.80
2023-05-01T21:36:13.500Z,9.00
2023-05-01T21:38:40.353Z,9.18
2023-05-01T21:41:07.129Z,9.65
2023-05-01T21:43:34.227Z,8.27
2023-05-01T21:46:01.050Z,10.50
2023-05-01T21:48:27.884Z,9.05
2023-05-01T21:50:54.766Z,10.10
2023-05-01T21:53:21.776Z,9.25
2023-05-01T21:55:48.591Z,10.07
2023-05-01T21:58:15.520Z,9.23
2023-05-01T22:00:42.810Z,9.35
2023-05-01T22:03:10.685Z,12.57
2023-05-01T22:05:41.207Z,9.02
2023-05-01T22:08:07.983Z,9.00
2023-05-01T22:10:34.746Z,9.43
2023-05-01T22:13:01.571Z,9.00
2023-05-01T22:15:28.293Z,9.40
2023-05-01T22:17:55.104Z,11.57
2023-05-01T22:20:22.100Z,12.10
2023-05-01T22:22:48.902Z,10.00
2023-05-01T22:25:16.813Z,10.85
2023-05-01T22:27:43.742Z,9.25
2023-05-01T22:30:11.374Z,10.50
2023-05-01T22:32:38.220Z,9.05
2023-05-01T22:35:05.436Z,9.57
2023-05-01T22:37:32.150Z,9.35
2023-05-01T22:39:59.755Z,9.20
2023-05-01T22:42:27.010Z,9.10
2023-05-01T22:44:53.849Z,9.60
2023-05-01T22:47:20.596Z,9.75
2023-05-01T22:49:47.484Z,9.18
2023-05-01T22:52:14.525Z,9.55
2023-05-01T22:54:41.280Z,9.73
2023-05-01T22:57:08.120Z,11.75
2023-05-01T22:59:35.913Z,9.63
2023-05-01T23:02:05.614Z,10.15
2023-05-01T23:04:32.657Z,10.15
2023-05-01T23:06:59.513Z,9.40
2023-05-01T23:09:26.617Z,11.15
2023-05-01T23:11:53.651Z,9.50
2023-05-01T23:14:20.540Z,9.15
2023-05-01T23:16:47.461Z,8.98
2023-05-01T23:19:24.104Z,9.20
2023-05-01T23:22:05.017Z,8.95
2023-05-01T23:24:49.981Z,9.35
2023-05-01T23:27:17.452Z,8.80
2023-05-01T23:30:00.463Z,8.35
2023-05-01T23:32:32.033Z,8.85
2023-05-01T23:35:14.109Z,8.82
2023-05-01T23:37:40.840Z,8.30
2023-05-01T23:40:08.425Z,9.50
2023-05-01T23:42:37.031Z,8.18
2023-05-01T23:45:05.157Z,9.20
2023-05-01T23:47:31.885Z,8.95
2023-05-01T23:49:58.961Z,9.30
2023-05-01T23:52:26.079Z,10.07
2023-05-01T23:54:52.992Z,10.80
2023-05-01T23:57:19.937Z,7.95
2023-05-01T23:59:46.685Z,8.27
